createdAt,value
2017-05-18T00:00:15.467Z,19.99
2017-05-18T00:01:38.026Z,19.92
2017-05-18T00:02:59.913Z,20.1
2017-05-18T00:04:22.056Z,19.96
2017-05-18T00:05:43.578Z,20.01
2017-05-18T00:07:05.093Z,19.94
2017-05-18T00:08:26.616Z,19.92
2017-05-18T00:09:48.757Z,19.88
2017-05-18T00:11:10.606Z,19.92
2017-05-18T00:12:32.130Z,19.95
2017-05-18T00:13:53.967Z,19.92
2017-05-18T00:15:15.809Z,19.99
2017-05-18T00:16:38.268Z,19.98
2017-05-18T00:18:00.419Z,20.03
2017-05-18T00:19:22.260Z,20.02
2017-05-18T00:20:44.758Z,20.06
2017-05-18T00:22:06.271Z,20.05
2017-05-18T00:23:27.814Z,19.96
2017-05-18T00:24:49.337Z,19.96
2017-05-18T00:26:11.778Z,19.96
2017-05-18T00:27:33.300Z,20.03
2017-05-18T00:28:55.450Z,20.01
2017-05-18T00:30:17.747Z,20.01
2017-05-18T00:31:39.618Z,19.96
2017-05-18T00:33:01.461Z,19.96
2017-05-18T00:34:23.627Z,19.96
2017-05-18T00:35:45.159Z,19.94
2017-05-18T00:37:07.947Z,19.88
2017-05-18T00:38:29.197Z,19.92
2017-05-18T00:39:51.654Z,19.91
2017-05-18T00:41:13.552Z,19.92
2017-05-18T00:42:35.399Z,19.83
2017-05-18T00:43:57.898Z,19.78
2017-05-18T00:45:20.077Z,19.77
2017-05-18T00:46:41.649Z,19.92
2017-05-18T00:48:03.888Z,19.88
2017-05-18T00:49:25.488Z,19.94
2017-05-18T00:50:46.695Z,19.91
2017-05-18T00:52:07.964Z,19.87
2017-05-18T00:53:30.546Z,19.8
2017-05-18T00:54:52.424Z,19.77
2017-05-18T00:56:14.595Z,19.73
2017-05-18T00:57:36.126Z,19.65
2017-05-18T00:58:57.998Z,19.68
2017-05-18T01:00:20.138Z,19.65
2017-05-18T01:01:42.408Z,19.63
2017-05-18T01:03:04.600Z,19.61
2017-05-18T01:04:26.391Z,19.62
2017-05-18T01:05:47.897Z,19.58
2017-05-18T01:07:09.742Z,19.68
2017-05-18T01:08:31.703Z,19.61
2017-05-18T01:09:54.378Z,19.63
2017-05-18T01:11:16.589Z,19.68
2017-05-18T01:12:38.128Z,19.61
2017-05-18T01:14:00.340Z,19.59
2017-05-18T01:15:22.788Z,19.55
2017-05-18T01:16:44.625Z,19.48
2017-05-18T01:18:06.761Z,19.55
2017-05-18T01:19:29.269Z,19.43
2017-05-18T01:20:51.742Z,19.44
2017-05-18T01:22:13.268Z,19.4
2017-05-18T01:23:34.789Z,19.48
2017-05-18T01:24:56.318Z,19.46
2017-05-18T01:26:18.135Z,19.44
2017-05-18T01:27:40.278Z,19.39
2017-05-18T01:29:02.858Z,19.46
2017-05-18T01:30:25.339Z,19.5
2017-05-18T01:31:47.528Z,19.47
2017-05-18T01:33:09.059Z,19.37
2017-05-18T01:34:31.237Z,19.43
2017-05-18T01:35:53.724Z,19.44
2017-05-18T01:37:15.853Z,19.44
2017-05-18T01:38:37.389Z,19.47
2017-05-18T01:39:59.221Z,19.47
2017-05-18T01:41:21.398Z,19.44
2017-05-18T01:42:43.249Z,19.41
2017-05-18T01:44:04.778Z,19.43
2017-05-18T01:45:26.997Z,19.43
2017-05-18T01:46:48.520Z,19.47
2017-05-18T01:48:10.779Z,19.43
2017-05-18T01:49:32.370Z,19.36
2017-05-18T01:50:54.229Z,19.36
2017-05-18T01:52:16.126Z,19.33
2017-05-18T01:53:38.268Z,19.39
2017-05-18T01:55:00.447Z,19.41
2017-05-18T01:56:22.280Z,19.39
2017-05-18T01:57:44.765Z,19.29
2017-05-18T01:59:06.728Z,19.22
2017-05-18T02:00:28.559Z,19.26
2017-05-18T02:01:50.751Z,19.29
2017-05-18T02:03:13.341Z,19.25
2017-05-18T02:04:35.159Z,19.14
2017-05-18T02:05:57.079Z,19.14
2017-05-18T02:07:18.275Z,19.25
2017-05-18T02:08:40.408Z,19.11
2017-05-18T02:10:02.541Z,19.16
2017-05-18T02:11:25.019Z,19.16
2017-05-18T02:12:46.849Z,19.16
2017-05-18T02:14:08.370Z,19.11
2017-05-18T02:15:30.568Z,19.16
2017-05-18T02:16:52.406Z,19.19
2017-05-18T02:18:13.927Z,19.18
2017-05-18T02:19:34.879Z,19.16
2017-05-18T02:20:57.027Z,19.19
2017-05-18T02:22:18.920Z,19.22
2017-05-18T02:23:41.056Z,19.21
2017-05-18T02:25:02.589Z,19.06
2017-05-18T02:26:24.459Z,19.11
2017-05-18T02:27:46.694Z,19.1
2017-05-18T02:29:08.549Z,19.08
2017-05-18T02:30:30.421Z,19
2017-05-18T02:31:52.246Z,19.02
2017-05-18T02:33:13.810Z,18.98
2017-05-18T02:34:35.969Z,18.88
2017-05-18T02:35:57.804Z,18.84
2017-05-18T02:37:20.297Z,18.91
2017-05-18T02:38:41.848Z,18.9
2017-05-18T02:40:03.725Z,18.91
2017-05-18T02:41:25.935Z,18.92
2017-05-18T02:42:48.037Z,18.92
2017-05-18T02:44:09.895Z,18.85
2017-05-18T02:45:31.405Z,18.94
2017-05-18T02:46:52.943Z,18.94
2017-05-18T02:48:15.758Z,19.1
2017-05-18T02:49:38.107Z,18.98
2017-05-18T02:50:59.950Z,18.95
2017-05-18T02:52:22.154Z,18.92
2017-05-18T02:53:44.291Z,18.87
2017-05-18T02:55:06.129Z,18.94
2017-05-18T02:56:28.099Z,18.91
2017-05-18T02:57:49.818Z,18.9
2017-05-18T02:59:12.267Z,18.9
2017-05-18T03:00:34.109Z,18.91
2017-05-18T03:01:56.569Z,18.82
2017-05-18T03:03:18.739Z,18.91
2017-05-18T03:04:40.274Z,18.88
2017-05-18T03:06:02.102Z,18.87
2017-05-18T03:07:24.008Z,18.73
2017-05-18T03:08:45.529Z,18.78
2017-05-18T03:10:07.691Z,18.84
2017-05-18T03:11:29.532Z,18.73
2017-05-18T03:12:52.087Z,18.84
2017-05-18T03:14:14.588Z,18.82
2017-05-18T03:15:36.742Z,18.69
2017-05-18T03:16:58.328Z,18.73
2017-05-18T03:18:20.529Z,18.63
2017-05-18T03:19:42.097Z,18.66
2017-05-18T03:21:04.670Z,18.58
2017-05-18T03:22:26.502Z,18.66
2017-05-18T03:23:48.757Z,18.66
2017-05-18T03:25:10.758Z,18.66
2017-05-18T03:26:32.596Z,18.67
2017-05-18T03:27:55.069Z,18.62
2017-05-18T03:29:16.588Z,18.73
2017-05-18T03:30:38.119Z,18.67
2017-05-18T03:32:00.328Z,18.58
2017-05-18T03:33:22.259Z,18.67
2017-05-18T03:34:44.109Z,18.67
2017-05-18T03:36:06.079Z,18.62
2017-05-18T03:37:27.917Z,18.72
2017-05-18T03:38:49.432Z,18.7
2017-05-18T03:40:11.902Z,18.66
2017-05-18T03:41:34.162Z,18.81
2017-05-18T03:42:55.928Z,18.81
2017-05-18T03:44:17.200Z,18.82
2017-05-18T03:45:39.356Z,18.8
2017-05-18T03:47:01.826Z,18.84
2017-05-18T03:48:23.648Z,18.82
2017-05-18T03:49:45.814Z,18.91
2017-05-18T03:51:07.411Z,18.85
2017-05-18T03:52:29.598Z,18.87
2017-05-18T03:53:51.415Z,18.92
2017-05-18T03:55:13.638Z,18.88
2017-05-18T03:56:35.469Z,19
2017-05-18T03:57:57.310Z,19
2017-05-18T03:59:19.249Z,19.07
2017-05-18T04:00:41.411Z,19.08
2017-05-18T04:02:02.939Z,19.13
2017-05-18T04:03:24.948Z,19.04
2017-05-18T04:04:46.733Z,19.21
2017-05-18T04:06:08.390Z,19.18
2017-05-18T04:07:30.657Z,19.18
2017-05-18T04:08:52.822Z,19.29
2017-05-18T04:10:15.331Z,19.37
2017-05-18T04:11:36.857Z,19.28
2017-05-18T04:12:58.696Z,19.32
2017-05-18T04:14:19.956Z,19.4
2017-05-18T04:15:42.087Z,19.44
2017-05-18T04:17:03.277Z,19.46
2017-05-18T04:18:25.181Z,19.51
2017-05-18T04:19:47.325Z,19.62
2017-05-18T04:21:10.000Z,19.61
2017-05-18T04:22:31.853Z,19.71
2017-05-18T04:23:54.018Z,19.73
2017-05-18T04:25:15.227Z,19.77
2017-05-18T04:26:37.680Z,19.81
2017-05-18T04:27:59.223Z,19.81
2017-05-18T04:29:21.390Z,19.86
2017-05-18T04:30:43.535Z,19.96
2017-05-18T04:32:06.109Z,19.99
2017-05-18T04:33:28.599Z,20.03
2017-05-18T04:34:50.320Z,20.08
2017-05-18T04:36:12.920Z,20.13
2017-05-18T04:37:35.425Z,20.08
2017-05-18T04:38:56.940Z,20.2
2017-05-18T04:40:18.768Z,20.24
2017-05-18T04:41:40.618Z,20.28
2017-05-18T04:43:02.771Z,20.33
2017-05-18T04:44:24.646Z,20.35
2017-05-18T04:45:46.176Z,20.42
2017-05-18T04:47:08.907Z,20.59
2017-05-18T04:48:30.735Z,20.61
2017-05-18T04:49:52.597Z,20.79
2017-05-18T04:51:13.805Z,20.82
2017-05-18T04:52:35.958Z,20.85
2017-05-18T04:53:58.490Z,20.84
2017-05-18T04:55:20.649Z,20.95
2017-05-18T04:56:42.866Z,21.03
2017-05-18T04:58:05.339Z,21.21
2017-05-18T04:59:27.786Z,21.43
2017-05-18T05:00:49.619Z,22.17
2017-05-18T05:02:11.764Z,23.55
2017-05-18T05:03:32.978Z,25.14
2017-05-18T05:04:55.489Z,26.62
2017-05-18T05:06:17.658Z,27.66
2017-05-18T05:07:39.524Z,28.44
2017-05-18T05:09:01.084Z,29.19
2017-05-18T05:10:22.974Z,29.12
2017-05-18T05:11:45.135Z,29.05
2017-05-18T05:13:06.978Z,28.81
2017-05-18T05:14:28.824Z,29.04
2017-05-18T05:15:51.020Z,28.95
2017-05-18T05:17:12.533Z,28.31
2017-05-18T05:18:34.718Z,27.59
2017-05-18T05:19:56.631Z,27.31
2017-05-18T05:21:19.409Z,27.43
2017-05-18T05:22:41.584Z,27.93
2017-05-18T05:24:03.498Z,28.93
2017-05-18T05:25:25.173Z,29.61
2017-05-18T05:26:47.498Z,30.39
2017-05-18T05:28:09.651Z,30.89
2017-05-18T05:29:31.179Z,31.28
2017-05-18T05:30:52.725Z,31.46
2017-05-18T05:32:15.148Z,31.85
2017-05-18T05:33:37.306Z,31.93
2017-05-18T05:34:59.174Z,32.01
2017-05-18T05:36:21.351Z,32.35
2017-05-18T05:37:44.279Z,32.35
2017-05-18T05:39:06.160Z,32.13
2017-05-18T05:40:28.329Z,30.99
2017-05-18T05:41:49.548Z,29.37
2017-05-18T05:43:12.039Z,28.78
2017-05-18T05:44:33.969Z,28.92
2017-05-18T05:45:56.135Z,28.93
2017-05-18T05:47:17.977Z,28.21
2017-05-18T05:48:39.810Z,27.4
2017-05-18T05:50:02.290Z,27.29
2017-05-18T05:51:24.480Z,27.41
2017-05-18T05:52:46.321Z,28.18
2017-05-18T05:54:08.849Z,29.33
2017-05-18T05:55:30.758Z,30.7
2017-05-18T05:56:52.601Z,32.65
2017-05-18T05:58:14.563Z,34.35
2017-05-18T05:59:36.966Z,35.6
2017-05-18T06:00:59.140Z,36.5
2017-05-18T06:02:21.301Z,36.72
2017-05-18T06:03:42.855Z,37.07
2017-05-18T06:05:05.425Z,37.13
2017-05-18T06:06:26.324Z,36.59
2017-05-18T06:07:48.520Z,35.8
2017-05-18T06:09:10.757Z,35.26
2017-05-18T06:10:33.232Z,35.26
2017-05-18T06:11:55.710Z,35.28
2017-05-18T06:13:17.995Z,35.31
2017-05-18T06:14:39.857Z,35.74
2017-05-18T06:16:02.648Z,36.23
2017-05-18T06:17:24.191Z,35.56
2017-05-18T06:18:45.720Z,34.88
2017-05-18T06:20:07.272Z,34.69
2017-05-18T06:21:30.157Z,34.16
2017-05-18T06:22:52.359Z,33.53
2017-05-18T06:24:13.989Z,32.56
2017-05-18T06:25:35.339Z,33.18
2017-05-18T06:26:57.816Z,34.53
2017-05-18T06:28:19.779Z,34.92
2017-05-18T06:29:42.629Z,36.05
2017-05-18T06:31:03.957Z,36.73
2017-05-18T06:32:26.428Z,38.35
2017-05-18T06:33:48.279Z,39.5
2017-05-18T06:35:10.148Z,39.91
2017-05-18T06:36:32.074Z,40.1
2017-05-18T06:37:54.548Z,40.74
2017-05-18T06:39:16.113Z,42.17
2017-05-18T06:40:38.098Z,41.63
2017-05-18T06:42:00.275Z,41.14
2017-05-18T06:43:22.155Z,40.67
2017-05-18T06:44:44.318Z,41.01
2017-05-18T06:46:06.188Z,41.84
2017-05-18T06:47:27.736Z,42.37
2017-05-18T06:48:50.170Z,42.37
2017-05-18T06:50:12.038Z,42.16
2017-05-18T06:51:33.558Z,42.45
2017-05-18T06:52:56.049Z,42.54
2017-05-18T06:54:18.294Z,42.98
2017-05-18T06:55:40.558Z,43.28
2017-05-18T06:57:02.719Z,43.68
2017-05-18T06:58:24.413Z,43.56
2017-05-18T06:59:46.383Z,43.33
2017-05-18T07:01:07.718Z,42.86
2017-05-18T07:02:29.603Z,42.54
2017-05-18T07:03:51.157Z,42.68
2017-05-18T07:05:13.375Z,42.68
2017-05-18T07:06:35.250Z,42.93
2017-05-18T07:07:57.537Z,43.05
2017-05-18T07:09:19.077Z,43.12
2017-05-18T07:10:40.965Z,43.35
2017-05-18T07:12:03.449Z,43.6
2017-05-18T07:13:24.667Z,43.38
2017-05-18T07:14:46.868Z,43.34
2017-05-18T07:16:08.789Z,43.05
2017-05-18T07:17:31.097Z,42.78
2017-05-18T07:18:52.967Z,43.05
2017-05-18T07:20:14.948Z,42.91
2017-05-18T07:21:37.128Z,42.66
2017-05-18T07:22:59.320Z,42.55
2017-05-18T07:24:21.840Z,42.36
2017-05-18T07:25:44.028Z,42.18
2017-05-18T07:27:05.888Z,42.04
2017-05-18T07:28:27.427Z,42.39
2017-05-18T07:29:48.978Z,42.84
2017-05-18T07:31:11.160Z,42.5
2017-05-18T07:32:33.376Z,42.45
2017-05-18T07:33:54.915Z,42.61
2017-05-18T07:35:16.469Z,42.86
2017-05-18T07:36:38.665Z,43.11
2017-05-18T07:38:01.287Z,42.89
2017-05-18T07:39:23.468Z,42.96
2017-05-18T07:40:45.019Z,42.78
2017-05-18T07:42:06.686Z,43.02
2017-05-18T07:43:28.518Z,42.78
2017-05-18T07:44:50.848Z,42.57
2017-05-18T07:46:12.216Z,42.35
2017-05-18T07:47:33.769Z,41.86
2017-05-18T07:48:56.357Z,40.96
2017-05-18T07:50:18.221Z,40.62
2017-05-18T07:51:40.828Z,40.91
2017-05-18T07:53:03.008Z,40.96
2017-05-18T07:54:25.449Z,40.73
2017-05-18T07:55:47.940Z,40.34
2017-05-18T07:57:09.539Z,39.72
2017-05-18T07:58:31.119Z,39.41
2017-05-18T07:59:53.352Z,39.06
2017-05-18T08:01:15.359Z,38.79
2017-05-18T08:02:37.537Z,38.9
2017-05-18T08:03:59.398Z,38.54
2017-05-18T08:05:21.597Z,37.46
2017-05-18T08:06:43.145Z,36.22
2017-05-18T08:08:04.747Z,35.15
2017-05-18T08:09:26.767Z,34.25
2017-05-18T08:10:48.662Z,33.26
2017-05-18T08:12:10.848Z,32.72
2017-05-18T08:13:33.097Z,32.06
2017-05-18T08:14:55.488Z,31.29
2017-05-18T08:16:17.967Z,30.45
2017-05-18T08:17:40.206Z,30
2017-05-18T08:19:02.129Z,29.55
2017-05-18T08:20:24.628Z,29.23
2017-05-18T08:21:47.107Z,28.93
2017-05-18T08:23:09.310Z,28.71
2017-05-18T08:24:33.037Z,28.46
2017-05-18T08:25:55.890Z,28.41
2017-05-18T08:27:18.357Z,28.33
2017-05-18T08:28:41.362Z,28.46
2017-05-18T08:30:02.929Z,28.46
2017-05-18T08:31:25.557Z,28.39
2017-05-18T08:32:48.056Z,28.48
2017-05-18T08:34:12.822Z,28.46
2017-05-18T08:35:35.159Z,28.44
2017-05-18T08:38:32.420Z,28.34
2017-05-18T08:39:55.484Z,28.33
2017-05-18T08:41:18.126Z,28.39
2017-05-18T08:42:39.683Z,28.52
2017-05-18T08:44:02.352Z,28.34
2017-05-18T08:45:24.439Z,28.39
2017-05-18T08:46:46.355Z,28.46
2017-05-18T08:48:08.671Z,28.58
2017-05-18T08:49:33.093Z,28.7
2017-05-18T08:50:55.276Z,28.76
2017-05-18T08:52:19.214Z,28.76
2017-05-18T08:53:41.363Z,28.73
2017-05-18T08:55:03.846Z,28.76
2017-05-18T08:56:26.836Z,28.68
2017-05-18T08:57:48.775Z,28.74
2017-05-18T08:59:11.047Z,28.89
2017-05-18T09:00:33.977Z,28.85
2017-05-18T09:01:56.310Z,28.85
2017-05-18T09:03:18.664Z,29.04
2017-05-18T09:04:41.558Z,29.04
2017-05-18T09:06:05.139Z,29.09
2017-05-18T09:07:37.718Z,29.09
2017-05-18T09:09:01.007Z,29.08
2017-05-18T09:10:23.645Z,29.12
2017-05-18T09:11:50.205Z,29.26
2017-05-18T09:13:12.931Z,29.27
2017-05-18T09:14:35.348Z,29.36
2017-05-18T09:15:57.585Z,29.28
2017-05-18T09:17:21.318Z,29.16
2017-05-18T09:18:44.597Z,29.36
2017-05-18T09:20:07.156Z,29.61
2017-05-18T09:21:30.099Z,29.85
2017-05-18T09:22:53.854Z,30.11
2017-05-18T09:24:16.931Z,30.04
2017-05-18T09:25:40.504Z,30.01
2017-05-18T09:27:04.228Z,29.95
2017-05-18T09:28:28.082Z,29.87
2017-05-18T09:29:54.038Z,29.74
2017-05-18T09:31:15.886Z,29.67
2017-05-18T09:32:38.470Z,29.7
2017-05-18T09:34:02.020Z,29.65
2017-05-18T09:35:24.832Z,29.71
2017-05-18T09:36:50.150Z,29.74
2017-05-18T09:38:12.236Z,29.8
2017-05-18T09:39:35.923Z,30.19
2017-05-18T09:40:57.747Z,30.26
2017-05-18T09:42:20.339Z,30.35
2017-05-18T09:43:43.507Z,30.34
2017-05-18T09:45:06.071Z,30.61
2017-05-18T09:46:28.614Z,30.47
2017-05-18T09:47:50.618Z,30.34
2017-05-18T09:49:13.770Z,30.39
2017-05-18T09:50:36.679Z,30.46
2017-05-18T09:52:00.754Z,30.58
2017-05-18T09:53:33.627Z,30.73
2017-05-18T09:54:55.620Z,30.72
2017-05-18T09:56:17.432Z,30.57
2017-05-18T09:57:39.492Z,30.26
2017-05-18T09:59:00.720Z,30.07
2017-05-18T10:00:23.283Z,30.38
2017-05-18T10:01:46.039Z,30.43
2017-05-18T10:03:07.886Z,30.16
2017-05-18T10:04:30.043Z,30.39
2017-05-18T10:05:51.648Z,30.38
2017-05-18T10:07:13.790Z,30.32
2017-05-18T10:08:36.278Z,30.15
2017-05-18T10:09:58.489Z,29.83
2017-05-18T10:11:20.689Z,29.85
2017-05-18T10:12:42.663Z,29.73
2017-05-18T10:14:04.997Z,29.7
2017-05-18T10:15:25.898Z,29.63
2017-05-18T10:16:47.248Z,29.65
2017-05-18T10:18:08.849Z,29.51
2017-05-18T10:19:31.026Z,29.21
2017-05-18T10:20:52.890Z,29
2017-05-18T10:22:14.418Z,29.05
2017-05-18T10:23:36.891Z,29
2017-05-18T10:24:59.379Z,29
2017-05-18T10:26:21.549Z,29.19
2017-05-18T10:27:44.040Z,29.21
2017-05-18T10:29:06.150Z,29.27
2017-05-18T10:30:28.316Z,29.14
2017-05-18T10:31:50.165Z,29.06
2017-05-18T10:33:12.038Z,29.33
2017-05-18T10:34:34.480Z,29.34
2017-05-18T10:35:56.325Z,29.6
2017-05-18T10:37:17.859Z,29.55
2017-05-18T10:38:40.022Z,29.41
2017-05-18T10:40:01.969Z,29.3
2017-05-18T10:41:24.528Z,29.46
2017-05-18T10:42:46.695Z,29.67
2017-05-18T10:44:08.229Z,29.89
2017-05-18T10:45:30.754Z,29.86
2017-05-18T10:46:51.963Z,29.41
2017-05-18T10:48:13.817Z,29.12
2017-05-18T10:49:35.975Z,28.81
2017-05-18T10:50:58.457Z,28.67
2017-05-18T10:52:20.690Z,28.7
2017-05-18T10:53:42.848Z,28.61
2017-05-18T10:55:05.025Z,28.46
2017-05-18T10:56:26.857Z,28.49
2017-05-18T10:57:49.139Z,28.43
2017-05-18T10:59:11.297Z,28.44
2017-05-18T11:00:33.777Z,28.51
2017-05-18T11:01:55.948Z,28.51
2017-05-18T11:03:18.576Z,28.19
2017-05-18T11:04:40.785Z,28.19
2017-05-18T11:06:02.316Z,28.36
2017-05-18T11:07:24.148Z,28.61
2017-05-18T11:08:45.695Z,28.77
2017-05-18T11:10:07.551Z,28.93
2017-05-18T11:11:29.400Z,29.3
2017-05-18T11:12:51.846Z,29.71
2017-05-18T11:14:14.028Z,29.82
2017-05-18T11:15:36.524Z,29.73
2017-05-18T11:16:58.379Z,30
2017-05-18T11:18:20.478Z,30.19
2017-05-18T11:19:42.328Z,30.24
2017-05-18T11:21:03.561Z,29.79
2017-05-18T11:22:25.261Z,29.31
2017-05-18T11:23:47.126Z,28.74
2017-05-18T11:25:09.098Z,28.61
2017-05-18T11:26:31.318Z,28.34
2017-05-18T11:27:52.841Z,28.09
2017-05-18T11:29:15.311Z,27.79
2017-05-18T11:30:37.461Z,27.7
2017-05-18T11:31:59.329Z,27.93
2017-05-18T11:33:21.506Z,28.02
2017-05-18T11:34:42.740Z,28.06
2017-05-18T11:36:04.586Z,28.19
2017-05-18T11:37:25.917Z,28.09
2017-05-18T11:38:48.091Z,27.74
2017-05-18T11:40:10.709Z,27.49
2017-05-18T11:41:33.230Z,27.29
2017-05-18T11:42:55.154Z,27.27
2017-05-18T11:44:17.105Z,27.04
2017-05-18T11:45:39.050Z,26.99
2017-05-18T11:47:01.359Z,26.67
2017-05-18T11:48:22.920Z,26.48
2017-05-18T11:49:43.831Z,26.47
2017-05-18T11:51:06.273Z,26.44
2017-05-18T11:52:28.139Z,26.47
2017-05-18T11:53:49.678Z,26.36
2017-05-18T11:55:11.916Z,26.15
2017-05-18T11:56:34.720Z,26.13
2017-05-18T11:57:56.898Z,25.92
2017-05-18T11:59:19.379Z,25.95
2017-05-18T12:00:41.232Z,26.51
2017-05-18T12:02:03.649Z,26.65
2017-05-18T12:03:25.569Z,26.73
2017-05-18T12:04:47.948Z,26.7
2017-05-18T12:06:10.101Z,26.82
2017-05-18T12:07:32.667Z,26.73
2017-05-18T12:08:54.867Z,26.82
2017-05-18T12:10:16.518Z,26.95
2017-05-18T12:11:38.375Z,27.18
2017-05-18T12:13:01.119Z,26.99
2017-05-18T12:14:23.607Z,27.07
2017-05-18T12:15:45.689Z,26.82
2017-05-18T12:17:07.848Z,26.58
2017-05-18T12:18:30.000Z,26.25
2017-05-18T12:19:52.268Z,25.97
2017-05-18T12:21:14.188Z,25.9
2017-05-18T12:22:36.479Z,25.88
2017-05-18T12:23:58.979Z,26.07
2017-05-18T12:25:21.445Z,26.32
2017-05-18T12:26:43.283Z,26.66
2017-05-18T12:28:05.514Z,26.66
2017-05-18T12:29:28.300Z,26.65
2017-05-18T12:30:50.178Z,26.55
2017-05-18T12:32:12.031Z,26.25
2017-05-18T12:33:33.890Z,26.05
2017-05-18T12:34:56.499Z,25.87
2017-05-18T12:36:18.523Z,25.82
2017-05-18T12:37:40.677Z,25.97
2017-05-18T12:39:03.268Z,26.12
2017-05-18T12:40:26.009Z,26.45
2017-05-18T12:41:48.163Z,26.62
2017-05-18T12:43:09.686Z,26.48
2017-05-18T12:44:31.505Z,26.44
2017-05-18T12:45:54.019Z,26.2
2017-05-18T12:47:15.871Z,25.98
2017-05-18T12:48:38.054Z,25.73
2017-05-18T12:49:59.737Z,25.61
2017-05-18T12:51:21.548Z,25.51
2017-05-18T12:52:44.029Z,25.51
2017-05-18T12:54:06.216Z,25.54
2017-05-18T12:55:27.109Z,25.23
2017-05-18T12:56:49.637Z,24.85
2017-05-18T12:58:11.486Z,25.1
2017-05-18T12:59:33.337Z,25.61
2017-05-18T13:00:55.240Z,26.07
2017-05-18T13:02:17.409Z,26.45
2017-05-18T13:03:39.588Z,26.66
2017-05-18T13:05:02.098Z,26.82
2017-05-18T13:06:24.592Z,26.8
2017-05-18T13:07:47.066Z,26.77
2017-05-18T13:09:09.543Z,26.88
2017-05-18T13:10:31.448Z,26.94
2017-05-18T13:11:53.638Z,27.13
2017-05-18T13:13:15.834Z,27.24
2017-05-18T13:14:37.354Z,27.12
2017-05-18T13:15:58.242Z,27.09
2017-05-18T13:17:20.418Z,27.22
2017-05-18T13:18:42.953Z,27.43
2017-05-18T13:20:05.549Z,27.47
2017-05-18T13:21:27.728Z,27.41
2017-05-18T13:22:49.695Z,27.32
2017-05-18T13:24:12.206Z,27.06
2017-05-18T13:25:34.689Z,25.92
2017-05-18T13:26:57.173Z,25.88
2017-05-18T13:28:19.755Z,26.23
2017-05-18T13:29:42.536Z,26.66
2017-05-18T13:31:04.797Z,27.19
2017-05-18T13:32:26.468Z,27.51
2017-05-18T13:33:48.727Z,27.44
2017-05-18T13:35:10.994Z,27.59
2017-05-18T13:36:33.540Z,27.07
2017-05-18T13:37:56.187Z,27.19
2017-05-18T13:39:18.035Z,26.52
2017-05-18T13:40:39.876Z,27.04
2017-05-18T13:42:02.085Z,27.27
2017-05-18T13:43:24.641Z,27.62
2017-05-18T13:44:45.878Z,27.59
2017-05-18T13:46:08.397Z,27.47
2017-05-18T13:47:30.568Z,27.39
2017-05-18T13:48:52.517Z,27.22
2017-05-18T13:50:14.165Z,26.73
2017-05-18T13:51:36.637Z,26.81
2017-05-18T13:52:58.261Z,26.99
2017-05-18T13:54:20.565Z,27.04
2017-05-18T13:55:42.107Z,27.03
2017-05-18T13:57:03.888Z,26.8
2017-05-18T13:58:26.057Z,26.84
2017-05-18T13:59:48.228Z,26.7
2017-05-18T14:01:10.105Z,26.63
2017-05-18T14:02:32.577Z,26.73
2017-05-18T14:03:54.433Z,26.3
2017-05-18T14:05:16.940Z,25.35
2017-05-18T14:06:39.157Z,25.46
2017-05-18T14:08:01.580Z,25.76
2017-05-18T14:09:23.748Z,25.85
2017-05-18T14:10:46.321Z,25.6
2017-05-18T14:12:08.498Z,24.84
2017-05-18T14:13:30.969Z,25
2017-05-18T14:14:52.833Z,25.4
2017-05-18T14:16:15.030Z,25.08
2017-05-18T14:17:37.209Z,25.17
2017-05-18T14:18:59.708Z,24.93
2017-05-18T14:20:21.593Z,25.1
2017-05-18T14:21:43.458Z,25.33
2017-05-18T14:23:05.750Z,25.76
2017-05-18T14:24:27.597Z,26.07
2017-05-18T14:25:49.779Z,25.91
2017-05-18T14:27:11.965Z,25.98
2017-05-18T14:28:33.488Z,25.55
2017-05-18T14:29:55.395Z,25.27
2017-05-18T14:31:17.327Z,25.75
2017-05-18T14:32:39.508Z,25.94
2017-05-18T14:34:01.782Z,25.35
2017-05-18T14:35:23.918Z,24.96
2017-05-18T14:36:46.081Z,24.34
2017-05-18T14:38:08.357Z,24.64
2017-05-18T14:39:30.518Z,24.64
2017-05-18T14:40:52.305Z,24.67
2017-05-18T14:42:14.488Z,24.37
2017-05-18T14:43:36.654Z,24.47
2017-05-18T14:44:58.528Z,24.37
2017-05-18T14:46:21.160Z,24.57
2017-05-18T14:47:42.720Z,24.08
2017-05-18T14:49:04.898Z,23.61
2017-05-18T14:50:26.596Z,23.5
2017-05-18T14:51:49.098Z,23.93
2017-05-18T14:53:11.403Z,23.58
2017-05-18T14:54:32.616Z,23.72
2017-05-18T14:55:54.464Z,24.06
2017-05-18T14:57:16.628Z,24.27
2017-05-18T14:58:38.827Z,24.05
2017-05-18T15:00:01.017Z,24.32
2017-05-18T15:01:23.318Z,24.02
2017-05-18T15:02:46.114Z,23.7
2017-05-18T15:04:07.978Z,23.39
2017-05-18T15:05:29.860Z,22.98
2017-05-18T15:06:51.779Z,23.39
2017-05-18T15:08:14.259Z,23.33
2017-05-18T15:09:36.798Z,23.25
2017-05-18T15:10:59.348Z,23.22
2017-05-18T15:12:21.517Z,23.33
2017-05-18T15:13:44.051Z,23.48
2017-05-18T15:15:05.918Z,23.7
2017-05-18T15:16:28.128Z,23.7
2017-05-18T15:17:50.009Z,23.61
2017-05-18T15:19:12.198Z,23.02
2017-05-18T15:20:34.709Z,22.49
2017-05-18T15:21:57.299Z,22.7
2017-05-18T15:23:19.600Z,22.67
2017-05-18T15:24:42.279Z,22.68
2017-05-18T15:26:04.462Z,22.43
2017-05-18T15:27:26.375Z,22.45
2017-05-18T15:28:48.876Z,22.6
2017-05-18T15:30:11.828Z,22.52
2017-05-18T15:31:33.658Z,22.65
2017-05-18T15:32:55.809Z,22.8
2017-05-18T15:34:17.989Z,22.98
2017-05-18T15:35:40.468Z,23.15
2017-05-18T15:37:02.419Z,22.55
2017-05-18T15:38:24.621Z,22.12
2017-05-18T15:39:46.794Z,21.75
2017-05-18T15:41:09.280Z,21.62
2017-05-18T15:42:31.605Z,21.69
2017-05-18T15:43:53.475Z,21.56
2017-05-18T15:45:14.760Z,21.72
2017-05-18T15:46:36.957Z,21.29
2017-05-18T15:47:58.801Z,21.29
2017-05-18T15:49:20.651Z,21.17
2017-05-18T15:50:42.896Z,21.17
2017-05-18T15:52:04.769Z,21.21
2017-05-18T15:53:26.738Z,21.12
2017-05-18T15:54:48.918Z,21.09
2017-05-18T15:56:11.079Z,20.67
2017-05-18T15:57:32.929Z,20.5
2017-05-18T15:58:55.109Z,20.1
2017-05-18T16:00:17.401Z,20.05
2017-05-18T16:01:38.973Z,20.11
2017-05-18T16:03:01.466Z,20.06
2017-05-18T16:04:23.629Z,19.86
2017-05-18T16:05:45.808Z,19.32
2017-05-18T16:07:08.000Z,19.04
2017-05-18T16:08:30.490Z,19.06
2017-05-18T16:09:52.778Z,18.72
2017-05-18T16:11:15.407Z,18.54
2017-05-18T16:12:37.255Z,18.54
2017-05-18T16:13:59.729Z,18.58
2017-05-18T16:15:22.223Z,18.54
2017-05-18T16:16:44.702Z,18.47
2017-05-18T16:18:06.568Z,18.33
2017-05-18T16:19:28.469Z,18.21
2017-05-18T16:20:50.641Z,18.23
2017-05-18T16:22:13.179Z,18.27
2017-05-18T16:23:35.058Z,18.14
2017-05-18T16:24:57.578Z,18.2
2017-05-18T16:26:20.089Z,18.12
2017-05-18T16:27:42.589Z,18.1
2017-05-18T16:29:05.096Z,18.07
2017-05-18T16:30:27.659Z,18.05
2017-05-18T16:31:49.834Z,18.11
2017-05-18T16:33:12.451Z,18.05
2017-05-18T16:34:34.971Z,18.12
2017-05-18T16:35:58.280Z,18.03
2017-05-18T16:37:20.477Z,17.97
2017-05-18T16:38:42.670Z,17.95
2017-05-18T16:40:04.233Z,17.84
2017-05-18T16:41:26.800Z,17.93
2017-05-18T16:42:49.008Z,17.84
2017-05-18T16:44:11.183Z,17.96
2017-05-18T16:45:33.031Z,17.7
2017-05-18T16:46:55.581Z,17.71
2017-05-18T16:48:17.769Z,17.72
2017-05-18T16:49:39.703Z,17.82
2017-05-18T16:51:01.573Z,17.75
2017-05-18T16:52:24.129Z,17.62
2017-05-18T16:53:46.621Z,17.7
2017-05-18T16:55:09.144Z,17.66
2017-05-18T16:56:31.350Z,17.71
2017-05-18T16:57:53.520Z,17.71
2017-05-18T16:59:15.555Z,17.68
2017-05-18T17:00:37.109Z,17.52
2017-05-18T17:01:58.989Z,17.54
2017-05-18T17:03:21.233Z,17.26
2017-05-18T17:04:43.521Z,17.03
2017-05-18T17:06:06.009Z,17.12
2017-05-18T17:07:28.238Z,17.03
2017-05-18T17:08:50.815Z,17.03
2017-05-18T17:10:12.992Z,17.11
2017-05-18T17:11:35.480Z,17.06
2017-05-18T17:12:57.361Z,16.98
2017-05-18T17:14:19.863Z,17
2017-05-18T17:15:41.841Z,16.93
2017-05-18T17:17:03.873Z,16.88
2017-05-18T17:18:25.533Z,16.76
2017-05-18T17:19:48.014Z,16.79
2017-05-18T17:21:10.243Z,16.82
2017-05-18T17:22:32.482Z,16.86
2017-05-18T17:23:53.797Z,16.88
2017-05-18T17:25:16.161Z,16.89
2017-05-18T17:26:38.353Z,16.93
2017-05-18T17:28:00.888Z,16.96
2017-05-18T17:29:23.382Z,16.82
2017-05-18T17:30:46.199Z,16.89
2017-05-18T17:32:08.422Z,16.89
2017-05-18T17:33:30.928Z,16.93
2017-05-18T17:34:53.423Z,16.93
2017-05-18T17:36:16.295Z,16.91
2017-05-18T17:37:38.228Z,16.73
2017-05-18T17:39:00.222Z,16.78
2017-05-18T17:40:22.713Z,16.79
2017-05-18T17:41:45.583Z,16.79
2017-05-18T17:43:07.824Z,16.76